Ergebnisliste vom: 19.03.2017 - Lauf um die Röderaue2017 - 13 km

weitere Ergebnisse >>

Platz Pl.m Pl.w Stnr. Name,Vorname Verein GJ AK Akm AKw Endzeit Rückstand
1 1   10 Schurig, Toni SC Riesa 96 M20 1   0:49:13 0:00:00
2 2   8 Thieme, Holger SC Riesa 72 M45 1   0:49:34 0:00:21
3 3   9 Goldbach, Thomas SC Riesa 83 M30 1   0:51:11 0:01:58
4 4   31 Wolf, Daniel LG Priestewitz 74 M40 1   0:51:41 0:02:28
5 5   50 Schwarzer, Roland Katzengebirgsläufer 85 M30 2   0:51:48 0:02:35
6 6   23 Kretzschmar, Achim Holzhandel Ganzig 67 M50 1   0:52:20 0:03:07
7 7   16 Brothuhn, Hubert   82 M35 1   0:52:33 0:03:20
8 8   41 Rühle, Nico SC Riesa Triathlon   mU18 1   0:53:41 0:04:28
9 9   36 Kaubisch, Nico Team Erd. Alkoholfrei Hirschfeld 97 M20 2   0:54:41 0:05:28
10 10   29 Päpscheck, Silvio Großenhain 82 M35 2   0:55:06 0:05:53
11 11   24 Knöfel, Detlef Meißen 63 M50 2   0:55:09 0:05:56
12 12   52 Lorke-Philipp, Steffen RC 1898 Radeberg 56 M60+ 1   0:55:32 0:06:19
13 13   4 Noack gen. Gräfe, Stefan LG TuS Weinböhla 79 M35 3   0:56:44 0:07:31
13 13   55 Wiese, Kai SV Hellerau 74 M40 2   0:56:44 0:07:31
15 15   18 Kühn, Henry Koma Gera OCR 85 M30 3   0:56:53 0:07:40
16 16   54 Umlauf, Steffen SV Hellerau 61 M55 1   0:57:14 0:08:01
17 17   28 Kümmel, Stephan LG Priestewitz 66 M50 3   0:57:30 0:08:17
18 18   20 Massek, Peter Oschatz 76 M40 3   0:57:50 0:08:37
19 19   26 Matz, Jürgen TSV Dresden 58 M55 2   0:58:01 0:08:48
20 20   58 Berger, Victor TuS Coswig 1920 53 M60+ 2   0:58:14 0:09:01
21 21   71 Bittner, Andreas CVJM Coswig 71 M45 2   0:58:17 0:09:04
22 22   3 Kreußler, Thomas Running Team Herzberg 79 M35 4   0:58:21 0:09:08
23 23   75 Czayka, Thomas SC Riesa Triathlon 71 M45 3   0:58:53 0:09:40
24 24   39 Brandt, Remo SV Chemie Nünchritz 70 M45 4   0:59:03 0:09:50
25 25   79 Eibner, Reno Radebeul Lindenau 62 M55 3   0:59:14 0:10:01
26   1 22 Lehmann, Birgit BSV Chemie Radebeul 64 W50+   1 0:59:31 0:10:18
27 26   80 Trapp, Jörg Wacker Laufgruppe 78 M35 5   0:59:54 0:10:41
28   2 49 Münch, Kristin SV Elbland Coswig-Meissen 84 W30   1 1:00:05 0:10:52
29 27   32 Rasch, Günter Coswig 61 M55 4   1:00:11 0:10:58
30 28   17 Eulitz, Carsten Koma Gera OCR 77 M40 4   1:00:14 0:11:01
31 29   14 Otto, Carsten Weinböhla 79 M35 6   1:00:59 0:11:46
32 30   19 Buchsteiner, Jörg Nossen 73 M40 5   1:01:57 0:12:44
33 31   12 Ruhland, Jörg Team Sport Ruscher 68 M45 5   1:01:59 0:12:46
33 31   66 Kuge, Jens Meißen 70 M45 5   1:01:59 0:12:46
35   3 21 Wegner-Drichelt, Conni Meißen 74 W40   1 1:02:26 0:13:13
36   4 60 Essig, Carolin Chemie Wacker AG Nünchritz 86 W30   2 1:03:19 0:14:06
36   4 61 Gittel, Juliane SV Wacker Chemie AG 79 W35   1 1:03:19 0:14:06
38 33   57 Falkenthal, Frank Großenhain 73 M40 6   1:03:49 0:14:36
39 34   44 Möbius, Tino SV Chemie Nünchritz 64 M50 4   1:03:59 0:14:46
40 35   76 Metasch, Frank Dresden 76 M40 7   1:04:14 0:15:01
41 36   65 Thieme, Rene Ebersbach 72 M45 7   1:04:44 0:15:31
42 37   46 Krille, Steffen SV Wildenhain 63 M50 5   1:05:01 0:15:48
43 38   40 Rühle, Frank Lichtensee 71 M45 8   1:05:09 0:15:56
44   6 73 Preußner, Kristina Lauffreunde Nüne 74 W40   2 1:05:58 0:16:45
45   7 2 Heyer, Ina Chemnitz 80 W35   2 1:06:02 0:16:49
46 39   7 Richter, Florian SV Motor Großenhain 94 M20 3   1:06:07 0:16:54
47 40   77 Giebler, Steffen SC Riesa Triathlon 72 M45 9   1:06:31 0:17:18
48 41   1 Heyer, Ulrich Chemnitz 53 M60+ 3   1:06:47 0:17:34
49 42   69 Wohs, Olaf TuS Coswig 1920 68 M45 10   1:07:06 0:17:53
50 43   42 Müller, Uwe Leisnig 70 M45 11   1:07:21 0:18:08
51   8 30 Kümmel, Petra LG Priestewitz 65 W50+   2 1:07:23 0:18:10
52 44   51 Brucksch, Tilo Peritz 71 M45 12   1:07:52 0:18:39
53   9 62 Mai, Alma   77 W40   3 1:08:06 0:18:53
54 45   43 Forberger, Erik AGF Döbeln 79 M35 7   1:08:07 0:18:54
55 46   63 Feder, Hartmut SC Riesa 60 M55 5   1:08:24 0:19:11
56 47   47 Behrisch, Siegmar Radeburg 53 M60+ 4   1:08:33 0:19:20
57 48   37 Hammer, Andre Meißen 76 M40 8   1:08:39 0:19:26
58 49   15 Eschenwecker, Thomas SC Riesa 62 M55 6   1:08:53 0:19:40
59 50   72 Brechke, Matthias Priestewitz 60 M55 7   1:09:16 0:20:03
60 51   13 Bänsch, Gerd Laufgruppe Nossen 73 M40 9   1:09:54 0:20:41
61 52   59 Eberhart, Peter Großenhain 61 M55 8   1:10:25 0:21:12
62   10 78 Kaiser, Susann FV Zabeltitz 76 W40   4 1:10:31 0:21:18
63   11 38 Lehmann, Anne-Kathrin Meißen 76 W40   5 1:11:02 0:21:49
64   12 25 Irmscher, Antje Riesa 77 W40   6 1:11:31 0:22:18
65 53   11 Schurig, Frank Riesa 64 M50 6   1:12:11 0:22:58
66 54   64 Schliwa, Alexander Team Tempus   mU18 2   1:12:39 0:23:26
67   13 74 Häußler, Ines Großenhain 68 W45   1 1:13:18 0:24:05
68   14 34 Richter, Manuela LG Priestewitz 74 W40   7 1:13:19 0:24:06
69 55   33 Windisch, Nico   80 M35 8   1:15:03 0:25:50
70 56   56 Hartmann, Markus   83 M30 4   1:15:05 0:25:52
71   15 35 Hendricks-Frenkel, Lelia Friedewald 78 W35   3 1:15:31 0:26:18
72 57   81 Noack, Jens   71 M45 13   1:16:22 0:27:09
73   16 27 Grajek, Juliane Reit und Fahrverein Prausitz 87 W30   3 1:16:43 0:27:30
74 58   68 Haase, Christoph   76 M40 10   1:16:46 0:27:33
75   17 70 Pietzsch, Annette   72 W45   2 1:16:49 0:27:36
76   18 5 Martick, Carola SC Riesa 77 W40   8 1:18:08 0:28:55
77   19 45 Krille, Sabine SV Wildenhain 62 W50+   3 1:19:31 0:30:18
78 59   200 Hempel, Hendrik   70 M45 14   1:20:36 0:31:23
79 60   48 Tittmann, Thomas   86 M30 5   1:21:21 0:32:08
79 60   67 Uebigau, Ralf   83 M30 5   1:21:21 0:32:08
81   20 53 Blaas, Aline SV Chemie Nünchritz 97 W20   1 1:22:05 0:32:52
82 62   6 Martick, Siegfried SC Riesa 47 M60+ 5   1:22:26 0:33:13
(c) 1990-2012 Blue Wonder Sport Promotion - Andreas Burow - Zeitnahme & Auswertung - www.Triathlon-Service.de